Time;durP1;ratioP1;P1;durP2;ratioP2;P2;SDS_P1;SDS_P2;PMS_P1;PMS_P2;Temp;Humidity;BMP_temperature;BMP_pressure;BME280_temperature;BME280_humidity;BME280_pressure;Samples;Min_cycle;Max_cycle;Signal;HPM_P1;HPM_P2
2022/08/07 00:00:58;;;;;;;;;;;;;;;;;;10585804;28;19973;-65
2022/08/07 00:06:00;;;;;;;;;;;;;;;;;;10586905;28;20397;-65
2022/08/07 00:11:02;;;;;;;;;;;;;;;;;;10555806;28;20321;-66
2022/08/07 00:16:05;;;;;;;;;;;;;;;;;;10544319;28;19985;-65
2022/08/07 00:21:07;;;;;;;;;;;;;;;;;;10544251;28;19925;-65
2022/08/07 00:26:29;;;;;;;;;;;;;;;;;;10575117;28;19931;-65
2022/08/07 00:31:49;;;;;;;;;;;;;;;;;;10554215;28;19924;-65
2022/08/07 00:36:52;;;;;;;;;;;;;;;;;;10544095;28;19974;-65
2022/08/07 00:41:54;;;;;;;;;;;;;;;;;;10543978;28;19932;-65
2022/08/07 00:47:03;;;;;;;;;;;;;;;;;;10542902;28;19924;-65
2022/08/07 00:52:07;;;;;;;;;;;;;;;;;;10554238;28;20354;-65
2022/08/07 00:57:10;;;;;;;;;;;;;;;;;;10580054;28;20298;-65
2022/08/07 01:02:12;;;;;;;;;;;;;;;;;;10543188;28;19937;-65
2022/08/07 01:07:29;;;;;;;;;;;;;;;;;;10543005;28;19924;-65
2022/08/07 01:12:32;;;;;;;;;;;;;;;;;;10550464;28;19934;-65
2022/08/07 01:17:34;;;;;;;;;;;;;;;;;;10582908;28;19931;-65
2022/08/07 01:22:36;;;;;;;;;;;;;;;;;;10584415;28;19924;-65
2022/08/07 01:27:38;;;;;;;;;;;;;;;;;;10584322;28;19924;-65
2022/08/07 01:32:52;;;;;;;;;;;;;;;;;;10570291;28;19969;-65
2022/08/07 01:37:54;;;;;;;;;;;;;;;;;;10542173;28;20055;-65
2022/08/07 01:42:56;;;;;;;;;;;;;;;;;;10540908;28;20401;-65
2022/08/07 01:48:00;;;;;;;;;;;;;;;;;;10542570;28;19990;-65
2022/08/07 01:53:19;;;;;;;;;;;;;;;;;;10542413;28;19924;-65
2022/08/07 01:58:22;;;;;;;;;;;;;;;;;;10540985;28;19924;-65
2022/08/07 02:03:30;;;;;;;;;;;;;;;;;;10540388;28;19928;-65
2022/08/07 02:08:43;;;;;;;;;;;;;;;;;;10545781;28;19928;-65
2022/08/07 02:13:45;;;;;;;;;;;;;;;;;;10572779;28;20267;-65
2022/08/07 02:18:59;;;;;;;;;;;;;;;;;;10540630;28;19924;-65
2022/08/07 02:24:01;;;;;;;;;;;;;;;;;;10539816;28;20319;-65
2022/08/07 02:29:03;;;;;;;;;;;;;;;;;;10548240;28;19961;-65
2022/08/07 02:34:05;;;;;;;;;;;;;;;;;;10582352;28;19935;-65
2022/08/07 02:39:12;;;;;;;;;;;;;;;;;;10582319;28;19928;-65
2022/08/07 02:44:18;;;;;;;;;;;;;;;;;;10551509;28;19978;-65
2022/08/07 02:49:20;;;;;;;;;;;;;;;;;;10568097;28;19931;-65
2022/08/07 02:54:30;;;;;;;;;;;;;;;;;;10581291;28;20408;-65
2022/08/07 02:59:32;;;;;;;;;;;;;;;;;;10581924;28;19927;-65
2022/08/07 03:04:34;;;;;;;;;;;;;;;;;;10579714;28;20381;-65
2022/08/07 03:09:36;;;;;;;;;;;;;;;;;;10580058;28;19924;-65
2022/08/07 03:14:43;;;;;;;;;;;;;;;;;;10589701;28;19927;-64
2022/08/07 03:19:49;;;;;;;;;;;;;;;;;;10571476;28;20293;-65
2022/08/07 03:24:56;;;;;;;;;;;;;;;;;;10571196;28;19931;-64
2022/08/07 03:29:58;;;;;;;;;;;;;;;;;;10547649;28;19923;-64
2022/08/07 03:35:00;;;;;;;;;;;;;;;;;;10546708;28;19931;-64
2022/08/07 03:40:19;;;;;;;;;;;;;;;;;;10580762;28;20010;-64
2022/08/07 03:45:21;;;;;;;;;;;;;;;;;;10588487;28;19924;-65
2022/08/07 03:50:32;;;;;;;;;;;;;;;;;;10567755;28;19978;-64
2022/08/07 03:55:34;;;;;;;;;;;;;;;;;;10545262;28;20379;-64
2022/08/07 04:00:54;;;;;;;;;;;;;;;;;;10545694;28;19924;-64
2022/08/07 04:06:00;;;;;;;;;;;;;;;;;;10580936;28;20313;-64
2022/08/07 04:11:02;;;;;;;;;;;;;;;;;;10562155;28;20310;-64
2022/08/07 04:16:24;;;;;;;;;;;;;;;;;;10544664;28;19978;-64
2022/08/07 04:21:32;;;;;;;;;;;;;;;;;;10543373;28;19935;-64
2022/08/07 04:26:34;;;;;;;;;;;;;;;;;;10544473;28;20318;-64
2022/08/07 04:31:36;;;;;;;;;;;;;;;;;;10572197;28;20305;-64
2022/08/07 04:36:41;;;;;;;;;;;;;;;;;;10586291;28;19969;-64
2022/08/07 04:41:43;;;;;;;;;;;;;;;;;;10586613;28;19928;-65
2022/08/07 04:46:49;;;;;;;;;;;;;;;;;;10585103;28;19927;-64
2022/08/07 04:52:05;;;;;;;;;;;;;;;;;;10584568;28;19924;-64
2022/08/07 04:57:07;;;;;;;;;;;;;;;;;;10576782;28;20370;-64
2022/08/07 05:02:29;;;;;;;;;;;;;;;;;;10543290;28;19928;-64
2022/08/07 05:07:31;;;;;;;;;;;;;;;;;;10543078;28;19924;-64
2022/08/07 05:12:38;;;;;;;;;;;;;;;;;;10544030;28;19924;-65
2022/08/07 05:17:47;;;;;;;;;;;;;;;;;;10556768;28;19959;-64
2022/08/07 05:22:53;;;;;;;;;;;;;;;;;;10580092;28;19977;-65
2022/08/07 05:27:55;;;;;;;;;;;;;;;;;;10541688;28;19924;-65
2022/08/07 05:33:04;;;;;;;;;;;;;;;;;;10542048;28;19954;-65
2022/08/07 05:38:06;;;;;;;;;;;;;;;;;;10541792;28;19924;-65
2022/08/07 05:43:10;;;;;;;;;;;;;;;;;;10541660;28;19924;-65
2022/08/07 05:48:12;;;;;;;;;;;;;;;;;;10541238;28;19935;-65
2022/08/07 05:53:14;;;;;;;;;;;;;;;;;;10541134;28;20389;-65
2022/08/07 05:58:36;;;;;;;;;;;;;;;;;;10540561;28;19938;-66
2022/08/07 06:03:40;;;;;;;;;;;;;;;;;;10529629;28;19971;-65
2022/08/07 06:08:54;;;;;;;;;;;;;;;;;;10581364;28;19974;-65
2022/08/07 06:13:56;;;;;;;;;;;;;;;;;;10582426;28;19931;-65
2022/08/07 06:19:14;;;;;;;;;;;;;;;;;;10483382;28;20283;-65
2022/08/07 06:24:18;;;;;;;;;;;;;;;;;;10498670;28;19931;-65
2022/08/07 06:29:41;;;;;;;;;;;;;;;;;;10521584;28;19924;-66
2022/08/07 06:34:43;;;;;;;;;;;;;;;;;;10561375;28;19943;-65
2022/08/07 06:39:46;;;;;;;;;;;;;;;;;;10539641;28;19924;-65
2022/08/07 06:45:08;;;;;;;;;;;;;;;;;;10538668;22;19924;-66
2022/08/07 06:50:12;;;;;;;;;;;;;;;;;;10509304;28;19924;-66
2022/08/07 06:55:14;;;;;;;;;;;;;;;;;;10506443;28;19924;-66
2022/08/07 07:00:35;;;;;;;;;;;;;;;;;;10539240;28;20003;-67
2022/08/07 07:05:37;;;;;;;;;;;;;;;;;;10548007;28;19924;-67
2022/08/07 07:10:59;;;;;;;;;;;;;;;;;;10547672;28;19937;-67
2022/08/07 07:16:03;;;;;;;;;;;;;;;;;;10545602;28;20023;-67
2022/08/07 07:21:06;;;;;;;;;;;;;;;;;;10546770;28;20283;-67
2022/08/07 07:26:14;;;;;;;;;;;;;;;;;;10546575;28;19993;-67
2022/08/07 07:31:39;;;;;;;;;;;;;;;;;;10533205;28;19925;-67
2022/08/07 07:36:45;;;;;;;;;;;;;;;;;;10505077;28;19974;-67
2022/08/07 07:41:49;;;;;;;;;;;;;;;;;;10544325;28;19976;-68
2022/08/07 07:47:03;;;;;;;;;;;;;;;;;;10461608;28;19963;-67
2022/08/07 07:52:17;;;;;;;;;;;;;;;;;;10462258;28;19925;-67
2022/08/07 07:57:20;;;;;;;;;;;;;;;;;;10462315;28;19925;-68
2022/08/07 08:02:22;;;;;;;;;;;;;;;;;;10462494;28;19936;-68
2022/08/07 08:07:35;;;;;;;;;;;;;;;;;;10462720;28;19971;-68
2022/08/07 08:12:43;;;;;;;;;;;;;;;;;;10462034;28;19929;-68
2022/08/07 08:18:00;;;;;;;;;;;;;;;;;;10461792;28;19924;-68
2022/08/07 08:28:42;;;;;;;;;;;;;;;;;;10461436;28;19935;-68
2022/08/07 08:33:46;;;;;;;;;;;;;;;;;;10460550;28;20287;-68
2022/08/07 08:38:50;;;;;;;;;;;;;;;;;;10460422;28;20418;-68
2022/08/07 08:43:52;;;;;;;;;;;;;;;;;;10460508;28;19925;-68
2022/08/07 08:48:57;;;;;;;;;;;;;;;;;;10442798;28;20398;-68
2022/08/07 08:53:59;;;;;;;;;;;;;;;;;;10460444;28;19925;-69
2022/08/07 08:59:01;;;;;;;;;;;;;;;;;;10442511;28;19925;-69
2022/08/07 09:04:13;;;;;;;;;;;;;;;;;;10443780;28;19931;-69
2022/08/07 09:09:15;;;;;;;;;;;;;;;;;;10459092;28;19932;-69
2022/08/07 09:14:21;;;;;;;;;;;;;;;;;;10459609;28;19975;-69
2022/08/07 09:19:23;;;;;;;;;;;;;;;;;;10459344;28;19925;-69
2022/08/07 09:24:46;;;;;;;;;;;;;;;;;;10459309;28;19931;-69
2022/08/07 09:30:00;;;;;;;;;;;;;;;;;;10458375;28;20280;-69
2022/08/07 09:35:11;;;;;;;;;;;;;;;;;;10458766;28;19925;-67
2022/08/07 09:40:33;;;;;;;;;;;;;;;;;;10458635;28;19929;-69
2022/08/07 09:45:35;;;;;;;;;;;;;;;;;;10458160;28;19975;-69
2022/08/07 09:50:57;;;;;;;;;;;;;;;;;;10458735;28;19925;-70
2022/08/07 09:56:00;;;;;;;;;;;;;;;;;;10458034;28;19925;-70
2022/08/07 10:01:05;;;;;;;;;;;;;;;;;;10457961;28;19924;-70
2022/08/07 10:06:09;;;;;;;;;;;;;;;;;;10440375;28;20003;-70
2022/08/07 10:11:12;;;;;;;;;;;;;;;;;;10457632;28;19929;-70
2022/08/07 10:16:35;;;;;;;;;;;;;;;;;;10457251;28;19925;-69
2022/08/07 10:21:37;;;;;;;;;;;;;;;;;;10457330;28;19932;-70
2022/08/07 10:26:59;;;;;;;;;;;;;;;;;;10442560;28;19971;-70
2022/08/07 10:32:01;;;;;;;;;;;;;;;;;;10457390;28;19925;-72
2022/08/07 10:37:04;;;;;;;;;;;;;;;;;;10456414;28;19947;-70
2022/08/07 10:42:06;;;;;;;;;;;;;;;;;;10438706;28;20380;-69
2022/08/07 10:47:10;;;;;;;;;;;;;;;;;;10456289;28;19928;-69
2022/08/07 10:52:15;;;;;;;;;;;;;;;;;;10456754;28;19932;-70
2022/08/07 10:57:17;;;;;;;;;;;;;;;;;;10456655;28;19931;-70
2022/08/07 11:02:19;;;;;;;;;;;;;;;;;;10455971;28;20372;-70
2022/08/07 11:07:33;;;;;;;;;;;;;;;;;;10456485;28;19975;-70
2022/08/07 11:12:56;;;;;;;;;;;;;;;;;;10456376;28;19928;-71
2022/08/07 11:18:03;;;;;;;;;;;;;;;;;;10456223;28;19929;-70
2022/08/07 11:23:05;;;;;;;;;;;;;;;;;;10456167;28;19925;-70
2022/08/07 11:28:10;;;;;;;;;;;;;;;;;;10455427;28;19925;-70
2022/08/07 11:33:16;;;;;;;;;;;;;;;;;;10459814;28;20354;-71
2022/08/07 11:38:18;;;;;;;;;;;;;;;;;;10463364;28;19932;-71
2022/08/07 11:43:22;;;;;;;;;;;;;;;;;;10463259;28;19933;-71
2022/08/07 11:48:30;;;;;;;;;;;;;;;;;;10462941;28;19925;-71
2022/08/07 11:53:32;;;;;;;;;;;;;;;;;;10478261;28;19935;-71
2022/08/07 11:58:36;;;;;;;;;;;;;;;;;;10462561;28;19987;-71
2022/08/07 12:03:39;;;;;;;;;;;;;;;;;;10462413;28;19925;-70
2022/08/07 12:08:43;;;;;;;;;;;;;;;;;;10461620;28;19932;-70
2022/08/07 12:13:45;;;;;;;;;;;;;;;;;;10461402;28;20368;-70
2022/08/07 12:18:48;;;;;;;;;;;;;;;;;;10461815;28;19924;-71
2022/08/07 12:23:51;;;;;;;;;;;;;;;;;;10461700;28;19924;-71
2022/08/07 12:29:08;;;;;;;;;;;;;;;;;;10460920;28;19925;-70
2022/08/07 12:34:12;;;;;;;;;;;;;;;;;;10460608;28;20431;-71
2022/08/07 12:39:14;;;;;;;;;;;;;;;;;;10461006;28;19932;-71
2022/08/07 12:44:36;;;;;;;;;;;;;;;;;;10468787;28;20386;-71
2022/08/07 12:49:38;;;;;;;;;;;;;;;;;;10501428;28;20389;-72
2022/08/07 12:54:50;;;;;;;;;;;;;;;;;;10501829;28;19932;-72
2022/08/07 12:59:56;;;;;;;;;;;;;;;;;;10501556;28;19925;-72
2022/08/07 13:04:58;;;;;;;;;;;;;;;;;;10501415;28;19925;-72
2022/08/07 13:10:02;;;;;;;;;;;;;;;;;;10501204;28;19932;-72
2022/08/07 13:15:21;;;;;;;;;;;;;;;;;;10500963;28;20019;-72
2022/08/07 13:20:24;;;;;;;;;;;;;;;;;;10500773;28;19924;-72
2022/08/07 13:25:28;;;;;;;;;;;;;;;;;;10500128;28;19946;-72
2022/08/07 13:30:32;;;;;;;;;;;;;;;;;;10500338;28;19931;-73
2022/08/07 13:35:42;;;;;;;;;;;;;;;;;;10483652;28;20019;-72
2022/08/07 13:41:02;;;;;;;;;;;;;;;;;;10499373;28;19950;-72
2022/08/07 13:46:04;;;;;;;;;;;;;;;;;;10498971;28;20413;-72
2022/08/07 13:51:13;;;;;;;;;;;;;;;;;;10499039;28;19925;-70
2022/08/07 13:56:29;;;;;;;;;;;;;;;;;;10498546;28;20330;-72
2022/08/07 14:01:37;;;;;;;;;;;;;;;;;;10498774;28;19925;-73
2022/08/07 14:06:52;;;;;;;;;;;;;;;;;;10483379;28;19978;-72
2022/08/07 14:11:54;;;;;;;;;;;;;;;;;;10499095;28;19924;-72
2022/08/07 14:17:01;;;;;;;;;;;;;;;;;;10498328;28;19967;-72
2022/08/07 14:22:26;;;;;;;;;;;;;;;;;;10499395;28;19924;-72
2022/08/07 14:27:35;;;;;;;;;;;;;;;;;;10498815;28;19931;-72
2022/08/07 14:32:57;;;;;;;;;;;;;;;;;;10483811;28;19932;-73
2022/08/07 14:37:59;;;;;;;;;;;;;;;;;;10497920;28;19932;-72
2022/08/07 14:43:06;;;;;;;;;;;;;;;;;;10498542;28;20007;-73
2022/08/07 14:48:28;;;;;;;;;;;;;;;;;;10498352;28;19932;-73
2022/08/07 14:53:31;;;;;;;;;;;;;;;;;;10497591;28;20015;-73
2022/08/07 14:58:53;;;;;;;;;;;;;;;;;;10497729;28;19928;-73
2022/08/07 15:03:56;;;;;;;;;;;;;;;;;;10498650;28;20015;-73
2022/08/07 15:09:01;;;;;;;;;;;;;;;;;;10503184;28;19924;-73
2022/08/07 15:14:03;;;;;;;;;;;;;;;;;;10534584;28;20379;-72
2022/08/07 15:19:11;;;;;;;;;;;;;;;;;;10547936;28;19924;-73
2022/08/07 15:24:13;;;;;;;;;;;;;;;;;;10571020;28;19938;-73
2022/08/07 15:29:35;;;;;;;;;;;;;;;;;;10577696;28;19977;-72
2022/08/07 15:34:57;;;;;;;;;;;;;;;;;;10569325;28;19924;-73
2022/08/07 15:39:59;;;;;;;;;;;;;;;;;;10546404;28;20259;-72
2022/08/07 15:45:02;;;;;;;;;;;;;;;;;;10532120;28;19925;-72
2022/08/07 15:50:04;;;;;;;;;;;;;;;;;;10504148;28;19931;-73
2022/08/07 15:55:07;;;;;;;;;;;;;;;;;;10506077;28;19924;-72
2022/08/07 16:00:12;;;;;;;;;;;;;;;;;;10537560;22;20378;-72
2022/08/07 16:05:33;;;;;;;;;;;;;;;;;;10539424;28;19924;-72
2022/08/07 16:10:36;;;;;;;;;;;;;;;;;;10544709;28;19931;-72
2022/08/07 16:15:39;;;;;;;;;;;;;;;;;;10519312;28;19924;-71
2022/08/07 16:20:56;;;;;;;;;;;;;;;;;;10517622;28;19928;-73
2022/08/07 16:26:18;;;;;;;;;;;;;;;;;;10511694;28;19970;-71
2022/08/07 16:31:32;;;;;;;;;;;;;;;;;;10501656;28;19979;-71
2022/08/07 16:36:54;;;;;;;;;;;;;;;;;;10505733;28;19932;-71
2022/08/07 16:42:05;;;;;;;;;;;;;;;;;;10535333;28;19928;-71
2022/08/07 16:47:07;;;;;;;;;;;;;;;;;;10568685;27;19964;-72
2022/08/07 16:52:19;;;;;;;;;;;;;;;;;;10506631;28;19959;-72
2022/08/07 16:57:41;;;;;;;;;;;;;;;;;;10517523;28;19979;-71
2022/08/07 17:03:03;;;;;;;;;;;;;;;;;;10516796;28;19928;-72
2022/08/07 17:08:07;;;;;;;;;;;;;;;;;;10542066;28;19974;-71
2022/08/07 17:13:10;;;;;;;;;;;;;;;;;;10539321;28;20329;-71
2022/08/07 17:18:12;;;;;;;;;;;;;;;;;;10538407;28;20260;-71
2022/08/07 17:23:15;;;;;;;;;;;;;;;;;;10500998;28;19924;-71
2022/08/07 17:28:17;;;;;;;;;;;;;;;;;;10504699;28;19948;-71
2022/08/07 17:33:20;;;;;;;;;;;;;;;;;;10523724;28;19925;-71
2022/08/07 17:38:42;;;;;;;;;;;;;;;;;;10521107;28;20002;-71
2022/08/07 17:43:46;;;;;;;;;;;;;;;;;;10537734;28;19924;-71
2022/08/07 17:49:03;;;;;;;;;;;;;;;;;;10527415;28;20355;-71
2022/08/07 17:54:10;;;;;;;;;;;;;;;;;;10526498;28;19924;-70
2022/08/07 17:59:12;;;;;;;;;;;;;;;;;;10540062;28;19930;-71
2022/08/07 18:04:18;;;;;;;;;;;;;;;;;;10539457;28;19924;-71
2022/08/07 18:09:20;;;;;;;;;;;;;;;;;;10540261;28;20011;-71
2022/08/07 18:14:42;;;;;;;;;;;;;;;;;;10538052;28;19951;-71
2022/08/07 18:19:47;;;;;;;;;;;;;;;;;;10538085;28;19946;-71
2022/08/07 18:25:09;;;;;;;;;;;;;;;;;;10531043;28;20382;-71
2022/08/07 18:30:20;;;;;;;;;;;;;;;;;;10518615;28;19951;-70
2022/08/07 18:35:34;;;;;;;;;;;;;;;;;;10540218;28;20015;-71
2022/08/07 18:40:51;;;;;;;;;;;;;;;;;;10526062;28;19924;-71
2022/08/07 18:46:01;;;;;;;;;;;;;;;;;;10545061;28;20376;-70
2022/08/07 18:51:23;;;;;;;;;;;;;;;;;;10507788;28;19925;-70
2022/08/07 18:56:45;;;;;;;;;;;;;;;;;;10506904;28;20325;-69
2022/08/07 19:01:59;;;;;;;;;;;;;;;;;;10505483;28;19925;-69
2022/08/07 19:07:21;;;;;;;;;;;;;;;;;;10507173;28;19986;-70
2022/08/07 19:12:36;;;;;;;;;;;;;;;;;;10538115;28;19978;-70
2022/08/07 19:17:38;;;;;;;;;;;;;;;;;;10537783;28;20311;-69
2022/08/07 19:22:59;;;;;;;;;;;;;;;;;;10516654;28;19931;-70
2022/08/07 19:28:20;;;;;;;;;;;;;;;;;;10540779;28;19924;-69
2022/08/07 19:33:42;;;;;;;;;;;;;;;;;;10510175;28;19924;-69
2022/08/07 19:38:44;;;;;;;;;;;;;;;;;;10513723;28;19936;-69
2022/08/07 19:43:54;;;;;;;;;;;;;;;;;;10529151;28;19935;-69
2022/08/07 19:49:04;;;;;;;;;;;;;;;;;;10523541;28;20267;-70
2022/08/07 19:54:09;;;;;;;;;;;;;;;;;;10518222;28;20216;-69
2022/08/07 19:59:32;;;;;;;;;;;;;;;;;;10533260;28;19932;-69
2022/08/07 20:04:41;;;;;;;;;;;;;;;;;;10539638;28;19924;-69
2022/08/07 20:09:43;;;;;;;;;;;;;;;;;;10532351;28;19931;-69
2022/08/07 20:15:05;;;;;;;;;;;;;;;;;;10541659;28;19924;-69
2022/08/07 20:20:10;;;;;;;;;;;;;;;;;;10524288;28;19932;-69
2022/08/07 20:25:13;;;;;;;;;;;;;;;;;;10503271;28;19925;-68
2022/08/07 20:30:21;;;;;;;;;;;;;;;;;;10504825;28;19924;-69
2022/08/07 20:35:23;;;;;;;;;;;;;;;;;;10540749;28;20303;-69
2022/08/07 20:40:27;;;;;;;;;;;;;;;;;;10529688;28;20015;-68
2022/08/07 20:45:34;;;;;;;;;;;;;;;;;;10519529;28;20303;-69
2022/08/07 20:50:56;;;;;;;;;;;;;;;;;;10521276;28;19940;-69
2022/08/07 20:55:58;;;;;;;;;;;;;;;;;;10523842;28;19924;-68
2022/08/07 21:01:01;;;;;;;;;;;;;;;;;;10541995;28;19934;-68
2022/08/07 21:06:05;;;;;;;;;;;;;;;;;;10584126;28;20322;-68
2022/08/07 21:11:23;;;;;;;;;;;;;;;;;;10584438;28;20012;-68
2022/08/07 21:16:30;;;;;;;;;;;;;;;;;;10584806;28;19931;-68
2022/08/07 21:21:32;;;;;;;;;;;;;;;;;;10571493;28;20379;-69
2022/08/07 21:26:34;;;;;;;;;;;;;;;;;;10576555;28;19924;-68
2022/08/07 21:31:36;;;;;;;;;;;;;;;;;;10560600;28;20287;-68
2022/08/07 21:36:58;;;;;;;;;;;;;;;;;;10575074;28;19977;-68
2022/08/07 21:42:00;;;;;;;;;;;;;;;;;;10583972;28;19924;-68
2022/08/07 21:47:04;;;;;;;;;;;;;;;;;;10583043;28;19924;-68
2022/08/07 21:52:06;;;;;;;;;;;;;;;;;;10583519;28;19924;-68
2022/08/07 21:57:12;;;;;;;;;;;;;;;;;;10583060;28;20378;-68
2022/08/07 22:02:17;;;;;;;;;;;;;;;;;;10552994;22;19931;-62
2022/08/07 22:07:19;;;;;;;;;;;;;;;;;;10530243;28;19932;-62
2022/08/07 22:12:21;;;;;;;;;;;;;;;;;;10499277;28;19925;-61
2022/08/07 22:17:25;;;;;;;;;;;;;;;;;;10509850;28;19924;-61
2022/08/07 22:22:27;;;;;;;;;;;;;;;;;;10512788;28;20272;-62
2022/08/07 22:27:30;;;;;;;;;;;;;;;;;;10520266;28;19925;-62
2022/08/07 22:32:52;;;;;;;;;;;;;;;;;;10498854;28;19967;-62
2022/08/07 22:37:54;;;;;;;;;;;;;;;;;;10514014;28;19928;-61
2022/08/07 22:43:04;;;;;;;;;;;;;;;;;;10503675;28;19929;-62
2022/08/07 22:48:06;;;;;;;;;;;;;;;;;;10514863;28;19924;-62
2022/08/07 22:53:14;;;;;;;;;;;;;;;;;;10540210;28;19931;-62
2022/08/07 22:58:16;;;;;;;;;;;;;;;;;;10521229;28;19939;-61
2022/08/07 23:03:18;;;;;;;;;;;;;;;;;;10497526;28;19924;-61
2022/08/07 23:08:21;;;;;;;;;;;;;;;;;;10515144;28;19931;-62
2022/08/07 23:13:31;;;;;;;;;;;;;;;;;;10537225;28;19924;-61
2022/08/07 23:20:22;;;;;;;;;;;;;;;;;;10501438;28;20430;-62
2022/08/07 23:24:14;;;;;;;;;;;;;;;;;;10539702;28;20006;-62
2022/08/07 23:29:17;;;;;;;;;;;;;;;;;;10516595;28;20335;-62
2022/08/07 23:34:39;;;;;;;;;;;;;;;;;;10505681;28;20429;-62
2022/08/07 23:39:42;;;;;;;;;;;;;;;;;;10533945;28;19928;-62
2022/08/07 23:44:44;;;;;;;;;;;;;;;;;;10546747;28;19978;-62
2022/08/07 23:49:46;;;;;;;;;;;;;;;;;;10516680;28;20379;-62
2022/08/07 23:54:51;;;;;;;;;;;;;;;;;;10503945;28;20290;-62
2022/08/07 23:59:54;;;;;;;;;;;;;;;;;;10534557;28;19928;-62
